SWR1FP LSZH-EDDS
Flight info
| Callsign | SWR1FP |
|---|---|
| Flight time | 0h 29m |
| Altitude | 19000 |
| Route | DEGES Z1 BODAN Z1 ALAGO Z4 ARSUT T125 REUTL |
| Aircraft | E190/M-SDE3GILORVW/S |
Departure
| Time | 2026-05-04 15:34 |
|---|---|
| Airport | Zürich Airport (LSZH) |
Arrival
| Time | 2026-05-04 16:04 |
|---|---|
| Airport | Stuttgart Airport (EDDS) |
| Time | Latitude | Longitude | Altitude | Speed | Heading |
|---|---|---|---|---|---|
| 2026-05-04 15:14 | 47.45509 | 8.56788 | 1419 ft | 0 kts | 140° |
| 2026-05-04 15:23 | 47.45512 | 8.56784 | 1416 ft | 0 kts | 140° |
| 2026-05-04 15:24 | 47.45509 | 8.56788 | 1419 ft | 0 kts | 140° |
| 2026-05-04 15:30 | 47.45515 | 8.56801 | 1419 ft | 1 kts | 39° |
| 2026-05-04 15:31 | 47.45567 | 8.56775 | 1419 ft | 8 kts | 299° |
| 2026-05-04 15:31 | 47.45581 | 8.56667 | 1421 ft | 13 kts | 277° |
| 2026-05-04 15:32 | 47.45659 | 8.56271 | 1413 ft | 13 kts | 5° |
| 2026-05-04 15:32 | 47.45832 | 8.56296 | 1414 ft | 15 kts | 6° |
| 2026-05-04 15:33 | 47.46092 | 8.56369 | 1416 ft | 19 kts | 45° |
| 2026-05-04 15:34 | 47.46573 | 8.55844 | 1395 ft | 100 kts | 317° |
| 2026-05-04 15:34 | 47.47236 | 8.54936 | 1401 ft | 157 kts | 317° |
| 2026-05-04 15:34 | 47.48945 | 8.52682 | 2852 ft | 172 kts | 323° |
| 2026-05-04 15:35 | 47.51160 | 8.50540 | 4040 ft | 214 kts | 327° |
| 2026-05-04 15:35 | 47.52356 | 8.49003 | 4435 ft | 244 kts | 304° |
| 2026-05-04 15:35 | 47.52807 | 8.46596 | 5286 ft | 243 kts | 266° |
| 2026-05-04 15:36 | 47.52441 | 8.41843 | 7546 ft | 229 kts | 259° |
| 2026-05-04 15:36 | 47.52179 | 8.39502 | 8317 ft | 232 kts | 254° |
| 2026-05-04 15:36 | 47.51392 | 8.37469 | 8954 ft | 231 kts | 216° |
| 2026-05-04 15:37 | 47.49920 | 8.36689 | 9627 ft | 230 kts | 178° |
| 2026-05-04 15:37 | 47.48369 | 8.37247 | 10329 ft | 232 kts | 155° |
| 2026-05-04 15:37 | 47.47055 | 8.38687 | 10935 ft | 240 kts | 132° |
| 2026-05-04 15:37 | 47.46203 | 8.40807 | 11597 ft | 246 kts | 117° |
| 2026-05-04 15:38 | 47.45607 | 8.43212 | 12259 ft | 257 kts | 104° |
| 2026-05-04 15:38 | 47.45485 | 8.45997 | 12487 ft | 285 kts | 91° |
| 2026-05-04 15:38 | 47.45581 | 8.49040 | 12773 ft | 308 kts | 89° |
| 2026-05-04 15:38 | 47.45683 | 8.52327 | 13019 ft | 330 kts | 90° |
| 2026-05-04 15:39 | 47.45746 | 8.55761 | 13612 ft | 337 kts | 90° |
| 2026-05-04 15:39 | 47.45811 | 8.58076 | 14054 ft | 340 kts | 89° |
| 2026-05-04 15:39 | 47.46148 | 8.66242 | 15605 ft | 346 kts | 89° |
| 2026-05-04 15:40 | 47.46239 | 8.68661 | 16006 ft | 349 kts | 89° |
| 2026-05-04 15:40 | 47.46375 | 8.72264 | 16591 ft | 354 kts | 89° |
| 2026-05-04 15:40 | 47.46509 | 8.75919 | 17187 ft | 358 kts | 89° |
| 2026-05-04 15:40 | 47.46643 | 8.79616 | 17768 ft | 362 kts | 89° |
| 2026-05-04 15:41 | 47.46715 | 8.83309 | 18286 ft | 365 kts | 97° |
| 2026-05-04 15:41 | 47.46282 | 8.86996 | 18784 ft | 364 kts | 106° |
| 2026-05-04 15:41 | 47.45680 | 8.90671 | 19155 ft | 372 kts | 106° |
| 2026-05-04 15:41 | 47.45082 | 8.94387 | 19176 ft | 366 kts | 106° |
| 2026-05-04 15:42 | 47.44517 | 8.97979 | 18960 ft | 353 kts | 106° |
| 2026-05-04 15:42 | 47.43987 | 9.01497 | 18982 ft | 355 kts | 105° |
| 2026-05-04 15:42 | 47.43452 | 9.05110 | 18978 ft | 363 kts | 105° |
| 2026-05-04 15:42 | 47.42912 | 9.08804 | 18992 ft | 376 kts | 105° |
| 2026-05-04 15:43 | 47.42355 | 9.12628 | 19022 ft | 394 kts | 105° |
| 2026-05-04 15:43 | 47.41781 | 9.16623 | 19043 ft | 401 kts | 103° |
| 2026-05-04 15:43 | 47.41709 | 9.20765 | 19044 ft | 411 kts | 82° |
| 2026-05-04 15:43 | 47.42662 | 9.24768 | 19028 ft | 416 kts | 64° |
| 2026-05-04 15:44 | 47.44150 | 9.28437 | 18982 ft | 417 kts | 58° |
| 2026-05-04 15:44 | 47.45726 | 9.32045 | 18991 ft | 416 kts | 59° |
| 2026-05-04 15:44 | 47.47240 | 9.35705 | 18989 ft | 417 kts | 60° |
| 2026-05-04 15:44 | 47.48869 | 9.39243 | 18979 ft | 419 kts | 48° |
| 2026-05-04 15:45 | 47.51197 | 9.41815 | 18985 ft | 418 kts | 26° |
| 2026-05-04 15:45 | 47.53930 | 9.43252 | 19010 ft | 418 kts | 14° |
| 2026-05-04 15:45 | 47.56709 | 9.44372 | 18950 ft | 418 kts | 15° |
| 2026-05-04 15:45 | 47.59535 | 9.45296 | 18983 ft | 415 kts | 5° |
| 2026-05-04 15:46 | 47.62425 | 9.45522 | 18964 ft | 415 kts | 359° |
| 2026-05-04 15:46 | 47.65314 | 9.45569 | 18957 ft | 415 kts | 359° |
| 2026-05-04 15:46 | 47.68204 | 9.45660 | 18949 ft | 416 kts | 360° |
| 2026-05-04 15:46 | 47.71104 | 9.45781 | 18612 ft | 416 kts | 0° |
| 2026-05-04 15:47 | 47.73984 | 9.45918 | 18285 ft | 412 kts | 0° |
| 2026-05-04 15:47 | 47.76839 | 9.46062 | 17911 ft | 409 kts | 0° |
| 2026-05-04 15:47 | 47.79670 | 9.46157 | 17524 ft | 404 kts | 355° |
| 2026-05-04 15:47 | 47.82357 | 9.45191 | 17131 ft | 395 kts | 332° |
| 2026-05-04 15:48 | 47.84672 | 9.43060 | 16697 ft | 390 kts | 322° |
| 2026-05-04 15:48 | 47.86906 | 9.40783 | 16221 ft | 387 kts | 324° |
| 2026-05-04 15:48 | 47.91521 | 9.36749 | 15282 ft | 381 kts | 329° |
| 2026-05-04 15:49 | 47.93848 | 9.34873 | 14704 ft | 379 kts | 330° |
| 2026-05-04 15:49 | 47.96142 | 9.33032 | 14103 ft | 370 kts | 330° |
| 2026-05-04 15:49 | 47.98390 | 9.31228 | 13495 ft | 362 kts | 330° |
| 2026-05-04 15:49 | 48.00588 | 9.29464 | 13078 ft | 349 kts | 330° |
| 2026-05-04 15:50 | 48.02659 | 9.27816 | 13038 ft | 328 kts | 330° |
| 2026-05-04 15:50 | 48.04597 | 9.26276 | 12972 ft | 311 kts | 330° |
| 2026-05-04 15:50 | 48.06464 | 9.24787 | 12976 ft | 301 kts | 330° |
| 2026-05-04 15:50 | 48.08370 | 9.23260 | 12983 ft | 320 kts | 330° |
| 2026-05-04 15:51 | 48.10358 | 9.21666 | 13031 ft | 328 kts | 330° |
| 2026-05-04 15:51 | 48.12381 | 9.20054 | 13035 ft | 330 kts | 330° |
| 2026-05-04 15:51 | 48.14422 | 9.18425 | 12977 ft | 332 kts | 330° |
| 2026-05-04 15:51 | 48.16455 | 9.16797 | 12985 ft | 331 kts | 330° |
| 2026-05-04 15:52 | 48.18486 | 9.15168 | 12979 ft | 331 kts | 329° |
| 2026-05-04 15:52 | 48.20481 | 9.13565 | 12596 ft | 315 kts | 329° |
| 2026-05-04 15:52 | 48.22362 | 9.12049 | 12244 ft | 310 kts | 329° |
| 2026-05-04 15:52 | 48.24261 | 9.10515 | 11935 ft | 308 kts | 329° |
| 2026-05-04 15:53 | 48.26144 | 9.08996 | 11598 ft | 305 kts | 329° |
| 2026-05-04 15:53 | 48.27632 | 9.07794 | 11274 ft | 305 kts | 329° |
| 2026-05-04 15:53 | 48.29491 | 9.06299 | 10873 ft | 302 kts | 329° |
| 2026-05-04 15:53 | 48.31330 | 9.04817 | 10483 ft | 298 kts | 329° |
| 2026-05-04 15:54 | 48.33151 | 9.03350 | 10116 ft | 296 kts | 329° |
| 2026-05-04 15:54 | 48.34961 | 9.01884 | 9727 ft | 295 kts | 329° |
| 2026-05-04 15:54 | 48.36756 | 9.00424 | 9318 ft | 293 kts | 330° |
| 2026-05-04 15:54 | 48.38528 | 8.98992 | 8930 ft | 291 kts | 330° |
| 2026-05-04 15:55 | 48.40311 | 8.97554 | 8541 ft | 291 kts | 330° |
| 2026-05-04 15:55 | 48.42090 | 8.96114 | 8152 ft | 289 kts | 330° |
| 2026-05-04 15:55 | 48.43865 | 8.94674 | 7772 ft | 289 kts | 330° |
| 2026-05-04 15:55 | 48.45625 | 8.93247 | 7391 ft | 287 kts | 330° |
| 2026-05-04 15:56 | 48.47379 | 8.91822 | 7031 ft | 285 kts | 330° |
| 2026-05-04 15:56 | 48.49107 | 8.90422 | 6643 ft | 277 kts | 331° |
| 2026-05-04 15:56 | 48.50762 | 8.89084 | 6264 ft | 264 kts | 331° |
| 2026-05-04 15:56 | 48.52342 | 8.87802 | 5885 ft | 252 kts | 331° |
| 2026-05-04 15:57 | 48.53857 | 8.86568 | 5528 ft | 243 kts | 332° |
| 2026-05-04 15:57 | 48.55325 | 8.85380 | 5206 ft | 235 kts | 332° |
| 2026-05-04 15:57 | 48.56734 | 8.84233 | 4891 ft | 227 kts | 332° |
| 2026-05-04 15:57 | 48.58179 | 8.83447 | 4548 ft | 219 kts | 358° |
| 2026-05-04 15:58 | 48.59579 | 8.83902 | 4258 ft | 217 kts | 31° |
| 2026-05-04 15:58 | 48.60728 | 8.85389 | 4026 ft | 218 kts | 44° |
| 2026-05-04 15:58 | 48.61798 | 8.86975 | 4104 ft | 216 kts | 43° |
| 2026-05-04 15:58 | 48.62678 | 8.88783 | 4208 ft | 223 kts | 68° |
| 2026-05-04 15:59 | 48.63054 | 8.91098 | 4295 ft | 225 kts | 78° |
| 2026-05-04 15:59 | 48.63444 | 8.93395 | 4196 ft | 224 kts | 70° |
| 2026-05-04 15:59 | 48.63935 | 8.95574 | 4166 ft | 218 kts | 71° |
| 2026-05-04 15:59 | 48.64328 | 8.97688 | 4111 ft | 202 kts | 74° |
| 2026-05-04 16:00 | 48.64691 | 8.99675 | 3988 ft | 191 kts | 71° |
| 2026-05-04 16:00 | 48.65062 | 9.01557 | 3840 ft | 189 kts | 71° |
| 2026-05-04 16:00 | 48.65427 | 9.03456 | 3594 ft | 183 kts | 71° |
| 2026-05-04 16:00 | 48.65770 | 9.05260 | 3357 ft | 174 kts | 70° |
| 2026-05-04 16:01 | 48.66096 | 9.06979 | 3110 ft | 167 kts | 70° |
| 2026-05-04 16:01 | 48.66409 | 9.08611 | 2896 ft | 160 kts | 72° |
| 2026-05-04 16:01 | 48.66712 | 9.10188 | 2675 ft | 151 kts | 70° |
| 2026-05-04 16:01 | 48.66996 | 9.11698 | 2482 ft | 145 kts | 70° |
| 2026-05-04 16:02 | 48.67273 | 9.13120 | 2325 ft | 140 kts | 71° |
| 2026-05-04 16:02 | 48.67538 | 9.14540 | 2152 ft | 141 kts | 71° |
| 2026-05-04 16:02 | 48.68087 | 9.17480 | 1709 ft | 146 kts | 70° |
| 2026-05-04 16:03 | 48.68363 | 9.18922 | 1472 ft | 140 kts | 70° |
| 2026-05-04 16:03 | 48.68628 | 9.20316 | 1293 ft | 136 kts | 70° |
| 2026-05-04 16:03 | 48.68879 | 9.21589 | 1259 ft | 111 kts | 73° |
| 2026-05-04 16:03 | 48.69047 | 9.22508 | 1261 ft | 74 kts | 73° |
| 2026-05-04 16:04 | 48.69208 | 9.23010 | 1261 ft | 33 kts | 49° |
| 2026-05-04 16:04 | 48.69400 | 9.23094 | 1256 ft | 15 kts | 295° |
| 2026-05-04 16:04 | 48.69389 | 9.22936 | 1261 ft | 16 kts | 255° |
| 2026-05-04 16:05 | 48.69357 | 9.22762 | 1259 ft | 18 kts | 255° |
| 2026-05-04 16:05 | 48.69322 | 9.22572 | 1256 ft | 19 kts | 252° |
| 2026-05-04 16:05 | 48.69241 | 9.22148 | 1258 ft | 22 kts | 255° |
| 2026-05-04 16:06 | 48.69197 | 9.21921 | 1258 ft | 23 kts | 253° |
| 2026-05-04 16:06 | 48.69070 | 9.21249 | 1259 ft | 26 kts | 254° |
| 2026-05-04 16:07 | 48.69008 | 9.20920 | 1258 ft | 23 kts | 254° |
| 2026-05-04 16:07 | 48.69041 | 9.20312 | 1260 ft | 20 kts | 255° |
| 2026-05-04 16:08 | 48.69001 | 9.20101 | 1261 ft | 22 kts | 254° |
| 2026-05-04 16:08 | 48.68817 | 9.19431 | 1266 ft | 23 kts | 253° |
| 2026-05-04 16:09 | 48.68808 | 9.19317 | 1261 ft | 2 kts | 329° |
| 2026-05-04 16:09 | 48.68869 | 9.19290 | 1258 ft | 5 kts | 344° |
| 2026-05-04 16:10 | 48.68872 | 9.19289 | 1257 ft | 0 kts | 344° |